Time;durP1;ratioP1;P1;durP2;ratioP2;P2;SDS_P1;SDS_P2;PMS_P1;PMS_P2;Temp;Humidity;BMP_temperature;BMP_pressure;BME280_temperature;BME280_humidity;BME280_pressure;Samples;Min_cycle;Max_cycle;Signal;HPM_P1;HPM_P2
2023/01/14 00:02:12;;;;;;;20.02;2.30;;;;;;;9.45;100.00;99098.72;5053830;28;20032;-66
2023/01/14 00:04:37;;;;;;;14.45;1.95;;;;;;;9.39;100.00;99100.47;5072217;28;20387;-66
2023/01/14 00:07:03;;;;;;;17.13;1.67;;;;;;;9.21;100.00;99075.63;5072205;28;20047;-66
2023/01/14 00:09:29;;;;;;;17.08;2.45;;;;;;;9.08;100.00;99103.50;5072221;28;20105;-65
2023/01/14 00:11:55;;;;;;;12.15;1.80;;;;;;;9.20;100.00;99117.72;5071727;28;20028;-65
2023/01/14 00:14:23;;;;;;;29.10;2.70;;;;;;;9.14;100.00;99118.69;5071526;28;20069;-65
2023/01/14 00:16:53;;;;;;;19.90;2.78;;;;;;;9.15;100.00;99120.31;5070737;28;20051;-66
2023/01/14 00:19:19;;;;;;;21.75;3.63;;;;;;;9.13;100.00;99127.75;5072511;28;20054;-66
2023/01/14 00:21:45;;;;;;;21.25;2.40;;;;;;;9.04;100.00;99137.19;5070680;28;20036;-66
2023/01/14 00:24:15;;;;;;;16.40;2.83;;;;;;;9.01;100.00;99129.63;5071886;28;20392;-66
2023/01/14 00:26:41;;;;;;;17.65;2.97;;;;;;;8.91;100.00;99141.72;5071915;28;20024;-65
2023/01/14 00:29:15;;;;;;;27.80;2.80;;;;;;;8.94;100.00;99149.31;5071458;28;20025;-66
2023/01/14 00:31:42;;;;;;;24.83;2.42;;;;;;;8.92;100.00;99154.06;5071211;28;20030;-66
2023/01/14 00:34:08;;;;;;;14.45;1.95;;;;;;;8.82;100.00;99161.03;5071182;28;20024;-66
2023/01/14 00:36:33;;;;;;;10.40;1.90;;;;;;;8.74;100.00;99162.19;5072462;28;20035;-66
2023/01/14 00:38:59;;;;;;;10.93;2.05;;;;;;;8.61;100.00;99168.53;5074065;28;20048;-66
2023/01/14 00:41:26;;;;;;;14.43;1.55;;;;;;;8.64;100.00;99172.59;5075223;28;20120;-66
2023/01/14 00:43:56;;;;;;;8.52;1.05;;;;;;;8.60;100.00;99168.75;5075655;28;20028;-66
2023/01/14 00:46:24;;;;;;;18.35;1.40;;;;;;;8.56;100.00;99179.13;5075142;28;20035;-66
2023/01/14 00:48:50;;;;;;;10.85;1.13;;;;;;;8.56;100.00;99186.34;5075015;28;20024;-66
2023/01/14 00:51:17;;;;;;;12.00;1.20;;;;;;;8.61;100.00;99194.50;5076625;28;20474;-66
2023/01/14 00:53:45;;;;;;;12.32;1.30;;;;;;;8.45;100.00;99169.97;5084815;28;20447;-66
2023/01/14 00:56:11;;;;;;;10.27;1.02;;;;;;;8.57;100.00;99193.34;5074626;28;20059;-66
2023/01/14 00:58:37;;;;;;;8.00;1.38;;;;;;;8.54;100.00;99201.81;5074244;28;20032;-66
2023/01/14 01:01:03;;;;;;;12.88;2.03;;;;;;;8.37;100.00;99209.63;5075385;28;20028;-66
2023/01/14 01:03:28;;;;;;;8.07;1.17;;;;;;;8.40;100.00;99210.03;5074058;28;20390;-66
2023/01/14 01:05:54;;;;;;;9.48;1.52;;;;;;;8.39;100.00;99208.41;5076098;28;20036;-66
2023/01/14 01:08:21;;;;;;;7.57;1.00;;;;;;;8.39;100.00;99219.13;5073501;28;20482;-66
2023/01/14 01:10:48;;;;;;;10.07;1.40;;;;;;;8.49;100.00;99223.94;5075675;28;20033;-66
2023/01/14 01:13:14;;;;;;;11.95;1.00;;;;;;;8.45;100.00;99230.81;5073277;28;20032;-67
2023/01/14 01:15:42;;;;;;;9.48;1.05;;;;;;;8.35;100.00;99243.88;5073422;28;20494;-66
2023/01/14 01:18:09;;;;;;;8.95;1.17;;;;;;;8.40;100.00;99244.06;5074273;28;20191;-66
2023/01/14 01:20:35;;;;;;;11.73;1.20;;;;;;;8.47;100.00;99248.28;5075145;28;20017;-66
2023/01/14 01:23:01;;;;;;;8.15;0.95;;;;;;;8.45;100.00;99255.75;5055413;28;20032;-66
2023/01/14 01:25:26;;;;;;;12.07;0.93;;;;;;;8.38;100.00;99255.00;5073599;28;20024;-67
2023/01/14 01:27:54;;;;;;;9.18;0.80;;;;;;;8.41;100.00;99267.13;5073917;28;20070;-67
2023/01/14 01:30:20;;;;;;;8.90;1.20;;;;;;;8.44;100.00;99272.88;5073781;28;20046;-67
2023/01/14 01:32:45;;;;;;;10.57;0.98;;;;;;;8.43;100.00;99279.28;5073911;28;20107;-67
2023/01/14 01:35:11;;;;;;;7.95;0.80;;;;;;;8.44;100.00;99280.94;5071700;28;20066;-67
2023/01/14 01:37:36;;;;;;;5.57;0.80;;;;;;;8.24;100.00;99291.81;5055987;28;20094;-66
2023/01/14 01:40:03;;;;;;;6.53;0.93;;;;;;;8.34;100.00;99291.28;5074061;28;20082;-66
2023/01/14 01:42:33;;;;;;;7.38;0.70;;;;;;;8.45;100.00;99304.00;5074659;28;20154;-66
2023/01/14 01:45:17;;;;;;;6.70;0.70;;;;;;;8.34;100.00;99307.34;5072735;28;20016;-66
2023/01/14 01:47:43;;;;;;;9.00;0.73;;;;;;;8.30;100.00;99318.75;5073557;28;20021;-66
2023/01/14 01:50:08;;;;;;;9.93;1.10;;;;;;;8.21;100.00;99323.56;5074017;28;20475;-66
2023/01/14 01:52:34;;;;;;;7.72;0.93;;;;;;;8.14;100.00;99328.16;5073859;28;20056;-67
2023/01/14 01:55:06;;;;;;;9.88;0.95;;;;;;;8.29;100.00;99336.69;5072621;28;20030;-66
2023/01/14 01:57:32;;;;;;;4.93;0.90;;;;;;;8.16;100.00;99342.19;5075118;28;20758;-66
2023/01/14 02:00:02;;;;;;;7.40;0.60;;;;;;;8.26;100.00;99339.81;5074023;28;20044;-66
2023/01/14 02:02:28;;;;;;;9.52;0.98;;;;;;;8.32;100.00;99346.97;5074490;28;20437;-66
2023/01/14 02:04:54;;;;;;;3.60;0.60;;;;;;;8.36;100.00;99355.41;5074493;28;20107;-66
2023/01/14 02:07:22;;;;;;;6.35;0.60;;;;;;;8.20;100.00;99352.22;5073182;28;20063;-66
2023/01/14 02:09:51;;;;;;;7.15;0.88;;;;;;;8.26;100.00;99353.22;5073035;28;20052;-66
2023/01/14 02:12:36;;;;;;;8.95;1.58;;;;;;;8.36;100.00;99355.41;5076182;28;20024;-67
2023/01/14 02:15:27;;;;;;;4.78;0.60;;;;;;;8.44;100.00;99358.66;5075854;28;20045;-67
2023/01/14 02:18:11;;;;;;;7.57;0.80;;;;;;;8.45;100.00;99362.97;5076627;28;20086;-67
2023/01/14 02:20:53;;;;;;;8.73;1.23;;;;;;;8.28;100.00;99363.69;5074705;28;20077;-67
2023/01/14 02:23:54;;;;;;;4.68;0.80;;;;;;;8.50;100.00;99378.38;5074010;28;20394;-66
2023/01/14 02:26:45;;;;;;;7.07;0.68;;;;;;;8.50;100.00;99380.25;5074157;28;20013;-66
2023/01/14 02:29:45;;;;;;;6.63;0.85;;;;;;;8.46;100.00;99375.31;5057819;28;20043;-67
2023/01/14 02:32:19;;;;;;;4.85;0.80;;;;;;;8.54;100.00;99387.63;5073102;28;20030;-67
2023/01/14 02:35:05;;;;;;;9.07;1.33;;;;;;;8.66;100.00;99388.53;5073935;28;20111;-67
2023/01/14 02:37:42;;;;;;;10.43;0.85;;;;;;;8.69;100.00;99393.47;5073131;28;20572;-67
2023/01/14 02:40:31;;;;;;;6.63;0.60;;;;;;;8.66;100.00;99387.72;5074350;28;20569;-67
2023/01/14 02:46:09;;;;;;;4.75;0.95;;;;;;;8.69;100.00;99398.81;5073661;28;20062;-67
2023/01/14 02:48:36;;;;;;;12.02;2.45;;;;;;;8.77;100.00;99402.25;5072072;28;20553;-66
2023/01/14 02:51:02;;;;;;;9.98;1.15;;;;;;;8.75;100.00;99410.53;5074379;28;20020;-66
2023/01/14 02:53:27;;;;;;;9.98;1.38;;;;;;;8.78;100.00;99411.97;5074437;28;20032;-66
2023/01/14 02:55:53;;;;;;;9.38;1.00;;;;;;;8.81;100.00;99417.72;5074325;28;20467;-67
2023/01/14 02:58:49;;;;;;;11.57;1.17;;;;;;;8.74;100.00;99429.53;5071277;28;20041;-67
2023/01/14 03:01:32;;;;;;;8.57;0.82;;;;;;;8.77;100.00;99426.41;5070770;28;20040;-67
2023/01/14 03:04:15;;;;;;;11.55;0.90;;;;;;;8.86;100.00;99428.56;5071956;28;20052;-67
2023/01/14 03:06:53;;;;;;;8.68;0.95;;;;;;;8.86;100.00;99428.56;5072210;28;20024;-66
2023/01/14 03:09:34;;;;;;;11.80;1.20;;;;;;;8.89;100.00;99432.69;5071924;28;20572;-67
2023/01/14 03:12:20;;;;;;;9.75;0.75;;;;;;;8.93;100.00;99429.31;5072955;28;20128;-67
2023/01/14 03:14:58;;;;;;;11.63;1.13;;;;;;;8.68;100.00;99401.75;5072448;28;20051;-66
2023/01/14 03:17:36;;;;;;;9.70;0.80;;;;;;;8.84;100.00;99441.41;5074001;28;20051;-66
2023/01/14 03:20:12;;;;;;;8.02;1.05;;;;;;;8.77;100.00;99437.94;5073731;28;20031;-66
2023/01/14 03:22:40;;;;;;;8.40;0.73;;;;;;;8.89;100.00;99440.72;5073285;28;20048;-67
2023/01/14 03:25:08;;;;;;;6.90;0.73;;;;;;;8.57;100.00;99418.53;5073054;28;20025;-67
2023/01/14 03:27:36;;;;;;;8.95;1.10;;;;;;;8.58;100.00;99414.84;5071765;28;20021;-67
2023/01/14 03:30:15;;;;;;;7.97;1.00;;;;;;;8.36;100.00;99385.69;5072952;28;20031;-67
2023/01/14 03:32:50;;;;;;;7.00;1.13;;;;;;;8.92;100.00;99449.16;5074688;28;20028;-67
2023/01/14 03:35:32;;;;;;;10.10;1.30;;;;;;;8.99;99.10;99457.13;5077962;28;20054;-66
2023/01/14 03:38:03;;;;;;;11.25;1.02;;;;;;;8.98;98.64;99458.19;5071597;28;20048;-66
2023/01/14 03:40:34;;;;;;;7.57;1.15;;;;;;;8.95;98.49;99464.00;5071200;28;20387;-67
2023/01/14 03:43:06;;;;;;;6.10;0.90;;;;;;;8.85;98.53;99447.59;5073541;28;20020;-67
2023/01/14 03:45:36;;;;;;;10.02;1.10;;;;;;;8.84;98.91;99468.22;5071311;28;20024;-67
2023/01/14 03:48:02;;;;;;;8.45;0.88;;;;;;;8.81;99.05;99473.22;5072580;28;20028;-67
2023/01/14 03:50:40;;;;;;;11.50;1.17;;;;;;;8.77;98.35;99472.00;5070984;28;20025;-66
2023/01/14 03:53:24;;;;;;;13.40;1.25;;;;;;;8.72;99.01;99483.38;5066655;28;20039;-67
2023/01/14 03:56:17;;;;;;;9.95;1.27;;;;;;;8.70;98.91;99477.41;5055563;28;20021;-67
2023/01/14 03:59:13;;;;;;;10.95;1.17;;;;;;;8.62;99.05;99483.06;5054901;28;20028;-67
2023/01/14 04:01:41;;;;;;;10.73;1.10;;;;;;;8.70;98.43;99488.13;5035246;28;20079;-67
2023/01/14 04:04:08;;;;;;;11.85;1.25;;;;;;;8.68;98.43;99488.38;5052236;28;20029;-67
2023/01/14 04:06:33;;;;;;;11.57;1.20;;;;;;;8.69;98.34;99483.81;5050365;28;20131;-66
2023/01/14 04:08:59;;;;;;;16.58;2.08;;;;;;;8.73;98.12;99493.06;5051885;28;20108;-66
2023/01/14 04:11:24;;;;;;;7.10;1.20;;;;;;;8.72;97.92;99499.47;5051258;28;20033;-66
2023/01/14 04:16:34;;;;;;;9.70;1.23;;;;;;;8.59;97.82;99487.00;5051061;28;20060;-66
2023/01/14 04:18:59;;;;;;;5.53;1.02;;;;;;;8.77;97.19;99514.91;5034738;28;20033;-66
2023/01/14 04:21:24;;;;;;;5.70;1.00;;;;;;;8.80;97.11;99520.66;5052764;28;20037;-66
2023/01/14 04:23:50;;;;;;;10.60;1.20;;;;;;;8.90;96.72;99534.38;5049827;28;20136;-66
2023/01/14 04:26:15;;;;;;;9.88;1.10;;;;;;;8.96;95.91;99532.69;5050468;28;20029;-67
2023/01/14 04:28:41;;;;;;;10.73;1.27;;;;;;;8.92;96.43;99532.31;5051770;28;20079;-67
2023/01/14 04:31:06;;;;;;;10.00;0.95;;;;;;;8.96;96.09;99534.56;5051803;28;20025;-67
2023/01/14 04:33:32;;;;;;;10.02;1.30;;;;;;;8.93;95.79;99541.19;5051672;28;20029;-67
2023/01/14 04:35:57;;;;;;;15.50;1.85;;;;;;;8.94;96.79;99534.78;5033843;28;20082;-66
2023/01/14 04:38:23;;;;;;;17.25;1.90;;;;;;;8.93;96.07;99536.63;5052058;28;20502;-66
2023/01/14 04:40:57;;;;;;;13.15;1.77;;;;;;;8.74;96.31;99521.56;5034235;28;20494;-66
2023/01/14 04:43:23;;;;;;;16.27;2.28;;;;;;;8.88;96.47;99536.50;5053193;28;20021;-66
2023/01/14 04:45:52;;;;;;;10.98;1.17;;;;;;;8.82;96.52;99549.94;5052398;28;20027;-67
2023/01/14 04:48:19;;;;;;;18.50;1.73;;;;;;;8.89;96.51;99554.22;5051994;28;20091;-67
2023/01/14 04:50:50;;;;;;;8.95;1.65;;;;;;;8.84;95.55;99554.06;5055962;28;20120;-67
2023/01/14 04:53:23;;;;;;;6.75;1.08;;;;;;;8.79;96.00;99547.69;5050893;28;20066;-67
2023/01/14 04:55:55;;;;;;;7.72;1.15;;;;;;;8.73;95.74;99557.44;5052107;28;20032;-66
2023/01/14 04:58:21;;;;;;;7.63;0.95;;;;;;;8.61;95.83;99553.78;5051974;28;20067;-66
2023/01/14 05:00:47;;;;;;;9.73;1.45;;;;;;;8.63;94.62;99554.41;5051848;28;20033;-67
2023/01/14 05:03:14;;;;;;;8.30;1.20;;;;;;;8.68;94.25;99547.38;5052443;28;20403;-67
2023/01/14 05:05:41;;;;;;;8.80;1.13;;;;;;;8.61;93.53;99530.50;5051964;28;20035;-67
2023/01/14 05:08:08;;;;;;;13.50;1.70;;;;;;;8.70;94.09;99556.00;5050248;28;20120;-66
2023/01/14 05:10:34;;;;;;;14.02;1.65;;;;;;;8.68;93.65;99562.66;5051988;28;20032;-66
2023/01/14 05:13:02;;;;;;;14.07;1.45;;;;;;;8.67;93.41;99559.13;5050508;28;20090;-67
2023/01/14 05:15:43;;;;;;;14.90;1.92;;;;;;;8.57;94.16;99566.00;5051449;28;20045;-67
2023/01/14 05:18:11;;;;;;;13.48;1.58;;;;;;;8.63;93.56;99568.63;5051979;28;20560;-66
2023/01/14 05:20:37;;;;;;;17.13;1.75;;;;;;;8.59;93.25;99571.97;5050503;28;20033;-66
2023/01/14 05:23:06;;;;;;;12.38;1.65;;;;;;;8.57;93.47;99576.72;5053364;28;20044;-66
2023/01/14 05:25:34;;;;;;;15.93;1.52;;;;;;;8.62;93.42;99571.56;5056869;28;20601;-66
2023/01/14 05:28:02;;;;;;;14.27;1.85;;;;;;;8.66;93.15;99586.16;5056300;28;20471;-66
2023/01/14 05:30:29;;;;;;;16.05;1.90;;;;;;;8.62;93.70;99593.00;5054883;28;20037;-66
2023/01/14 05:32:54;;;;;;;10.27;1.60;;;;;;;8.50;94.06;99600.91;5037507;28;20056;-66
2023/01/14 05:35:20;;;;;;;10.80;1.52;;;;;;;8.45;94.11;99598.88;5054587;28;20056;-66
2023/01/14 05:37:46;;;;;;;11.68;1.55;;;;;;;8.41;94.05;99605.69;5055055;28;20460;-66
2023/01/14 05:40:13;;;;;;;13.95;1.50;;;;;;;8.43;94.20;99608.97;5054811;28;20021;-66
2023/01/14 05:45:37;;;;;;;14.98;1.98;;;;;;;8.46;93.59;99605.88;5055558;28;20036;-66
2023/01/14 05:48:04;;;;;;;15.23;1.50;;;;;;;8.49;93.75;99612.66;5055372;28;20399;-66
2023/01/14 05:50:30;;;;;;;15.68;1.85;;;;;;;8.46;93.31;99613.91;5055112;28;20036;-66
2023/01/14 05:52:55;;;;;;;11.10;1.48;;;;;;;8.49;93.63;99619.88;5037071;28;20025;-66
2023/01/14 05:55:21;;;;;;;12.68;1.90;;;;;;;8.47;93.50;99614.72;5054791;28;20395;-66
2023/01/14 05:57:46;;;;;;;13.18;1.83;;;;;;;8.57;92.45;99622.31;5053039;28;20491;-66
2023/01/14 06:06:20;;;;;;;14.82;3.05;;;;;;;8.56;92.19;99618.81;5054112;28;20115;-66
2023/01/14 06:08:25;;;;;;;14.45;2.05;;;;;;;8.66;92.33;99624.53;5057927;28;20059;-66
2023/01/14 06:10:50;;;;;;;10.20;1.67;;;;;;;8.63;92.05;99619.59;5055106;28;20032;-66
2023/01/14 06:13:16;;;;;;;14.20;1.75;;;;;;;8.73;91.85;99632.53;5053431;28;20090;-66
2023/01/14 06:15:45;;;;;;;12.57;1.55;;;;;;;8.62;92.32;99638.59;5052279;28;20056;-66
2023/01/14 06:18:14;;;;;;;23.70;2.15;;;;;;;8.68;92.18;99643.91;5052205;28;20601;-66
2023/01/14 06:20:40;;;;;;;16.42;1.65;;;;;;;8.68;92.10;99645.78;5053048;28;20037;-66
2023/01/14 06:23:06;;;;;;;17.73;2.08;;;;;;;8.72;91.81;99646.97;5054073;28;20110;-67
2023/01/14 06:25:33;;;;;;;12.57;1.95;;;;;;;8.74;91.80;99652.13;5053593;28;20082;-67
2023/01/14 06:28:00;;;;;;;16.40;1.75;;;;;;;8.78;90.85;99654.16;5052805;28;20049;-66
2023/01/14 06:30:26;;;;;;;16.40;2.20;;;;;;;8.66;90.77;99642.47;5052941;28;20049;-66
2023/01/14 06:32:53;;;;;;;19.08;2.03;;;;;;;8.67;91.01;99660.19;5054522;28;20025;-66
2023/01/14 06:35:19;;;;;;;18.25;1.92;;;;;;;8.57;91.99;99665.22;5054273;28;20032;-66
2023/01/14 06:37:45;;;;;;;14.75;1.63;;;;;;;8.60;91.41;99664.78;5054640;28;20025;-66
2023/01/14 06:40:12;;;;;;;17.30;2.40;;;;;;;8.56;90.93;99660.88;5053087;28;20502;-66
2023/01/14 06:42:37;;;;;;;17.92;2.30;;;;;;;8.44;91.65;99661.56;5054493;28;20037;-66
2023/01/14 06:45:03;;;;;;;13.13;1.60;;;;;;;8.47;91.83;99660.31;5054346;28;20032;-66
2023/01/14 06:47:29;;;;;;;20.55;2.88;;;;;;;8.56;91.00;99666.25;5053912;28;20498;-67
2023/01/14 06:49:54;;;;;;;13.90;1.70;;;;;;;8.50;91.00;99657.19;5054515;28;20439;-66
2023/01/14 06:52:21;;;;;;;24.23;2.28;;;;;;;8.54;91.41;99665.63;5019499;28;20033;-66
2023/01/14 06:54:47;;;;;;;17.27;2.55;;;;;;;8.52;90.49;99675.75;5052010;28;20551;-66
2023/01/14 06:57:13;;;;;;;18.67;2.22;;;;;;;8.46;90.77;99669.38;5053051;28;20033;-66
2023/01/14 06:59:39;;;;;;;25.73;2.30;;;;;;;8.44;91.65;99674.97;5054435;28;20033;-66
2023/01/14 07:02:05;;;;;;;18.40;2.35;;;;;;;8.41;91.34;99675.41;5053179;28;20372;-66
2023/01/14 07:04:30;;;;;;;15.57;1.70;;;;;;;8.41;91.32;99679.91;5053419;28;20025;-66
2023/01/14 07:06:56;;;;;;;20.95;2.72;;;;;;;8.43;90.85;99686.72;5052417;28;20056;-65
2023/01/14 07:09:21;;;;;;;12.88;2.28;;;;;;;8.44;90.57;99687.53;5052312;28;20079;-66
2023/01/14 07:11:46;;;;;;;18.75;1.95;;;;;;;8.45;90.46;99689.19;5035588;28;20072;-66
2023/01/14 07:14:12;;;;;;;22.15;2.60;;;;;;;8.49;90.32;99682.38;5053300;28;20525;-66
2023/01/14 07:16:37;;;;;;;15.95;2.35;;;;;;;8.37;90.50;99686.72;5053410;28;20041;-66
2023/01/14 07:19:03;;;;;;;14.23;2.10;;;;;;;8.40;90.61;99692.50;5053396;28;20033;-66
2023/01/14 07:21:28;;;;;;;19.00;2.25;;;;;;;8.35;90.82;99697.66;5053289;28;20037;-66
2023/01/14 07:23:53;;;;;;;16.65;2.60;;;;;;;8.41;90.29;99699.53;5054448;28;20048;-66
2023/01/14 07:26:19;;;;;;;17.23;2.35;;;;;;;8.46;89.53;99707.75;5051697;28;20037;-66
2023/01/14 07:28:44;;;;;;;16.55;2.17;;;;;;;8.41;90.02;99709.41;5052522;28;20087;-66
2023/01/14 07:31:10;;;;;;;21.20;2.60;;;;;;;8.28;89.96;99707.59;5053814;28;20079;-66
2023/01/14 07:33:35;;;;;;;18.55;2.05;;;;;;;8.27;90.07;99699.75;5053258;28;20123;-67
2023/01/14 07:36:01;;;;;;;21.85;2.53;;;;;;;8.24;90.08;99698.28;5053080;28;20388;-68
2023/01/14 07:38:26;;;;;;;20.15;2.42;;;;;;;8.20;90.16;99718.50;5051913;28;20504;-68
2023/01/14 07:40:53;;;;;;;16.55;1.90;;;;;;;8.26;90.50;99719.53;5052203;28;20025;-68
2023/01/14 07:43:18;;;;;;;17.05;2.60;;;;;;;8.09;90.96;99716.50;5053454;28;20492;-68
2023/01/14 07:45:44;;;;;;;21.52;2.15;;;;;;;7.76;90.53;99664.63;5052563;28;20044;-68
2023/01/14 07:48:10;;;;;;;15.20;2.67;;;;;;;8.12;90.28;99710.72;5034749;28;20044;-69
2023/01/14 07:50:35;;;;;;;18.13;1.98;;;;;;;8.24;90.21;99733.13;5035336;28;20438;-68
2023/01/14 07:53:01;;;;;;;14.13;1.98;;;;;;;8.20;90.79;99737.28;5051356;28;20033;-68
2023/01/14 07:55:27;;;;;;;19.88;2.10;;;;;;;8.31;90.68;99733.97;5050867;28;20029;-69
2023/01/14 07:57:53;;;;;;;21.15;2.60;;;;;;;8.31;90.27;99735.78;5051545;28;20044;-68
2023/01/14 08:00:19;;;;;;;17.92;2.10;;;;;;;8.34;90.46;99746.09;5051221;28;20033;-67
2023/01/14 08:02:45;;;;;;;14.23;2.00;;;;;;;8.22;90.50;99727.19;5052208;28;20115;-69
2023/01/14 08:05:12;;;;;;;20.17;2.28;;;;;;;8.52;89.84;99758.88;5052620;28;20410;-68
2023/01/14 08:07:38;;;;;;;18.80;1.83;;;;;;;8.38;90.71;99748.19;5052352;28;20025;-68
2023/01/14 08:10:05;;;;;;;17.25;2.38;;;;;;;8.56;91.03;99752.88;5052669;28;20029;-66
2023/01/14 08:12:32;;;;;;;23.55;2.75;;;;;;;8.62;90.17;99764.63;5050837;28;20033;-68
2023/01/14 08:14:58;;;;;;;21.80;2.60;;;;;;;8.60;91.10;99761.31;5052300;28;20102;-69
2023/01/14 08:17:23;;;;;;;29.70;3.40;;;;;;;8.68;90.79;99761.09;5052586;28;20121;-68
2023/01/14 08:19:49;;;;;;;25.38;2.95;;;;;;;8.77;90.63;99758.97;5034250;28;20398;-67
2023/01/14 08:22:14;;;;;;;20.73;2.72;;;;;;;8.79;90.75;99771.16;5034698;28;20037;-68
2023/01/14 08:24:40;;;;;;;24.23;3.03;;;;;;;8.82;90.98;99773.41;5053934;28;20040;-68
2023/01/14 08:27:05;;;;;;;18.77;3.10;;;;;;;8.77;91.40;99762.47;5051126;28;20032;-67
2023/01/14 08:29:31;;;;;;;28.70;3.20;;;;;;;8.80;90.93;99772.78;5052007;28;20112;-68
2023/01/14 08:31:56;;;;;;;24.63;2.72;;;;;;;8.86;90.51;99773.81;5034688;28;20029;-67
2023/01/14 08:34:23;;;;;;;37.40;3.65;;;;;;;8.87;90.85;99789.69;5052421;28;20033;-68
2023/01/14 08:36:49;;;;;;;26.85;3.63;;;;;;;8.85;90.68;99781.03;5052625;28;20029;-68
2023/01/14 08:39:16;;;;;;;21.77;2.60;;;;;;;8.77;90.95;99778.56;5053042;28;20033;-68
2023/01/14 08:41:42;;;;;;;25.95;2.65;;;;;;;8.78;91.01;99780.25;5052933;28;20464;-68
2023/01/14 08:44:08;;;;;;;27.55;3.53;;;;;;;8.77;91.19;99796.53;5052666;28;20266;-68
2023/01/14 08:46:34;;;;;;;25.02;3.05;;;;;;;8.80;91.37;99791.56;5052265;28;20082;-68
2023/01/14 08:48:59;;;;;;;22.77;2.75;;;;;;;8.80;91.20;99799.59;5051329;28;20120;-68
2023/01/14 08:51:26;;;;;;;25.83;3.08;;;;;;;8.84;91.38;99795.50;5050488;28;20029;-67
2023/01/14 08:53:54;;;;;;;33.08;3.50;;;;;;;8.84;91.49;99794.63;5050342;28;20039;-67
2023/01/14 08:56:20;;;;;;;24.30;2.92;;;;;;;8.91;91.15;99793.59;5052606;28;20396;-67
2023/01/14 08:58:46;;;;;;;28.25;3.75;;;;;;;8.92;91.66;99797.09;5054506;28;20039;-68
2023/01/14 09:01:12;;;;;;;36.70;3.30;;;;;;;8.90;92.06;99797.28;5055729;28;20025;-68
2023/01/14 09:03:38;;;;;;;28.48;3.38;;;;;;;8.87;92.42;99802.25;5054518;28;20052;-68
2023/01/14 09:06:09;;;;;;;29.00;3.35;;;;;;;8.98;91.39;99806.16;5055347;28;20052;-66
2023/01/14 09:17:05;;;;;;;24.88;3.42;;;;;;;8.91;91.97;99806.19;5055049;28;20052;-67
2023/01/14 09:19:34;;;;;;;15.00;2.13;;;;;;;8.67;92.67;99805.00;5054856;28;20051;-68
2023/01/14 09:21:59;;;;;;;14.48;3.15;;;;;;;8.61;92.03;99803.19;5054165;28;20054;-67
2023/01/14 09:24:25;;;;;;;22.52;2.58;;;;;;;8.66;91.73;99811.41;5055415;28;20108;-68
2023/01/14 09:26:50;;;;;;;19.70;2.10;;;;;;;8.62;91.53;99823.63;5054375;28;20212;-68
2023/01/14 09:29:16;;;;;;;20.83;2.45;;;;;;;8.66;90.69;99828.34;5055683;28;20033;-68
2023/01/14 09:31:41;;;;;;;23.38;2.33;;;;;;;8.70;90.42;99829.56;5052396;28;20032;-68
2023/01/14 09:34:08;;;;;;;19.85;2.35;;;;;;;8.79;90.98;99821.28;5051802;28;20037;-67
2023/01/14 09:36:34;;;;;;;24.65;2.28;;;;;;;8.84;90.40;99833.03;5050579;28;20025;-68
2023/01/14 09:39:00;;;;;;;25.33;2.42;;;;;;;8.90;90.80;99829.50;5052558;28;20448;-68
2023/01/14 09:41:39;;;;;;;23.88;3.30;;;;;;;8.87;91.09;99831.78;5050261;28;20059;-68
2023/01/14 09:44:08;;;;;;;21.30;2.38;;;;;;;8.76;91.17;99822.53;5051779;28;20021;-67
2023/01/14 09:46:35;;;;;;;18.10;2.25;;;;;;;9.04;90.49;99818.69;5053242;28;20028;-67
2023/01/14 09:49:03;;;;;;;16.30;2.47;;;;;;;9.03;91.91;99825.13;5053890;28;20120;-68
2023/01/14 09:51:41;;;;;;;12.40;1.50;;;;;;;9.20;90.84;99825.44;5053906;28;20040;-68
2023/01/14 09:54:15;;;;;;;13.70;2.00;;;;;;;9.12;91.06;99831.91;5053680;28;20091;-68
2023/01/14 09:56:49;;;;;;;14.65;1.75;;;;;;;9.15;91.33;99826.09;5054853;28;20490;-68
2023/01/14 09:59:37;;;;;;;18.83;2.53;;;;;;;9.18;90.88;99823.00;5055019;28;20129;-68
2023/01/14 10:02:24;;;;;;;17.02;2.10;;;;;;;9.26;91.16;99825.41;5054698;28;20475;-68
2023/01/14 10:05:02;;;;;;;13.35;1.83;;;;;;;9.25;92.03;99821.09;5055022;28;20430;-68
2023/01/14 10:07:28;;;;;;;23.50;2.40;;;;;;;9.26;91.12;99829.97;5055063;28;20498;-67
2023/01/14 10:09:57;;;;;;;20.52;1.88;;;;;;;9.20;91.45;99833.50;5054618;28;20459;-68
2023/01/14 10:12:36;;;;;;;19.48;2.15;;;;;;;9.18;91.97;99828.34;5054768;28;20039;-68
2023/01/14 10:15:01;;;;;;;21.55;2.53;;;;;;;9.11;91.60;99830.25;5054265;28;20527;-68
2023/01/14 10:17:33;;;;;;;21.05;2.28;;;;;;;9.09;91.89;99832.31;5053676;28;20029;-68
2023/01/14 10:20:10;;;;;;;15.48;1.98;;;;;;;9.04;92.55;99826.75;5056591;28;20509;-67
2023/01/14 10:22:45;;;;;;;14.55;1.65;;;;;;;9.07;92.01;99831.69;5055014;28;20036;-67
2023/01/14 10:25:19;;;;;;;21.70;2.15;;;;;;;9.07;91.67;99829.88;5052706;28;20017;-67
2023/01/14 10:27:51;;;;;;;15.98;2.03;;;;;;;9.07;91.93;99831.69;5055617;28;20048;-68
2023/01/14 10:30:23;;;;;;;19.98;2.08;;;;;;;9.00;91.91;99812.94;5055629;28;20112;-68
2023/01/14 10:32:51;;;;;;;17.50;2.15;;;;;;;9.21;90.81;99833.31;5054989;28;20064;-69
2023/01/14 10:35:28;;;;;;;19.23;2.42;;;;;;;9.28;91.14;99834.09;5054595;28;20107;-68
2023/01/14 10:37:53;;;;;;;15.80;1.73;;;;;;;9.30;90.59;99834.69;5053132;28;20115;-68
2023/01/14 10:40:24;;;;;;;20.13;2.22;;;;;;;9.22;91.14;99826.06;5053143;28;20032;-68
2023/01/14 10:42:53;;;;;;;9.02;1.83;;;;;;;9.17;91.43;99832.06;5054466;28;20086;-68
2023/01/14 10:45:18;;;;;;;15.35;1.75;;;;;;;9.04;91.92;99834.81;5052864;28;20054;-68
2023/01/14 10:47:46;;;;;;;15.00;2.28;;;;;;;9.06;92.33;99827.38;5053569;28;20032;-68
2023/01/14 10:50:22;;;;;;;17.63;2.22;;;;;;;9.07;92.54;99835.22;5052909;28;20029;-68
2023/01/14 10:52:49;;;;;;;17.70;2.40;;;;;;;9.14;91.67;99827.97;5052881;28;20043;-68
2023/01/14 10:55:22;;;;;;;20.95;2.03;;;;;;;9.09;92.60;99830.44;5034923;28;20095;-68
2023/01/14 10:58:11;;;;;;;19.90;2.20;;;;;;;9.17;92.32;99834.75;5051357;28;20039;-68
2023/01/14 11:00:41;;;;;;;15.75;1.60;;;;;;;9.13;93.16;99837.03;5053810;28;20029;-68
2023/01/14 11:03:15;;;;;;;13.40;1.77;;;;;;;9.06;93.03;99819.31;5053065;28;20344;-68
2023/01/14 11:05:41;;;;;;;16.38;2.30;;;;;;;9.02;93.14;99813.56;5051516;28;20039;-68
2023/01/14 11:08:31;;;;;;;14.60;2.33;;;;;;;9.18;93.22;99834.53;5051397;28;20033;-68
2023/01/14 11:11:03;;;;;;;16.52;2.13;;;;;;;9.08;94.51;99828.81;5053327;28;20029;-68
2023/01/14 11:13:41;;;;;;;17.60;2.38;;;;;;;9.01;94.34;99816.47;5051603;28;20029;-68
2023/01/14 11:16:29;;;;;;;19.02;2.50;;;;;;;9.12;93.94;99813.09;5052657;28;20110;-68
2023/01/14 11:19:19;;;;;;;18.88;2.20;;;;;;;9.23;93.71;99839.25;5051621;28;20031;-69
2023/01/14 11:21:46;;;;;;;17.80;1.75;;;;;;;9.18;93.52;99833.72;5049227;28;20025;-68
2023/01/14 11:24:28;;;;;;;18.50;2.58;;;;;;;9.12;94.39;99826.53;5053182;28;20025;-68
2023/01/14 11:27:06;;;;;;;23.30;2.10;;;;;;;9.20;93.93;99828.13;5052058;28;20017;-68
2023/01/14 11:29:37;;;;;;;20.33;2.28;;;;;;;9.11;93.91;99823.03;5053593;28;20033;-68
2023/01/14 11:32:12;;;;;;;18.83;2.22;;;;;;;9.19;93.78;99827.31;5052061;28;20021;-68
2023/01/14 11:34:51;;;;;;;17.15;1.95;;;;;;;9.21;94.05;99827.94;5051212;28;20041;-68
2023/01/14 11:37:24;;;;;;;15.80;1.90;;;;;;;9.16;94.09;99827.75;5052003;28;20391;-68
2023/01/14 11:39:54;;;;;;;18.55;2.42;;;;;;;9.15;93.81;99824.22;5052478;28;20025;-68
2023/01/14 11:42:25;;;;;;;13.60;2.03;;;;;;;9.32;93.12;99824.56;5052604;28;20017;-69
2023/01/14 11:45:17;;;;;;;16.77;2.35;;;;;;;9.34;93.54;99822.50;5052630;28;20167;-68
2023/01/14 11:47:55;;;;;;;16.67;2.20;;;;;;;9.43;93.05;99814.16;5052437;28;20452;-69
2023/01/14 11:50:26;;;;;;;10.45;1.70;;;;;;;9.44;92.91;99818.50;5052392;28;20028;-68
2023/01/14 11:53:18;;;;;;;13.55;1.60;;;;;;;9.61;92.39;99822.34;5052980;28;20359;-68
2023/01/14 11:55:49;;;;;;;13.10;1.60;;;;;;;9.70;92.25;99814.81;5050926;28;20032;-69
2023/01/14 11:58:14;;;;;;;19.55;2.55;;;;;;;9.78;91.62;99812.69;5052891;28;20032;-68
2023/01/14 12:01:03;;;;;;;20.25;2.80;;;;;;;9.70;92.49;99807.59;5052888;28;20039;-68
2023/01/14 12:03:38;;;;;;;14.73;1.80;;;;;;;9.76;92.76;99801.34;5051468;28;20502;-68
2023/01/14 12:06:11;;;;;;;24.05;2.70;;;;;;;9.76;92.19;99804.03;5053109;28;20013;-67
2023/01/14 12:08:39;;;;;;;21.48;2.33;;;;;;;9.69;92.45;99807.81;5052314;28;20116;-68
2023/01/14 12:11:12;;;;;;;20.25;2.72;;;;;;;9.59;93.32;99802.91;5052041;28;20083;-68